createdAt,value
2018-03-04T00:00:23.489Z,139.30
2018-03-04T00:02:51.300Z,126.80
2018-03-04T00:05:18.781Z,118.70
2018-03-04T00:07:46.485Z,132.27
2018-03-04T00:10:14.789Z,110.20
2018-03-04T00:12:42.351Z,131.67
2018-03-04T00:15:09.848Z,127.20
2018-03-04T00:17:37.384Z,125.00
2018-03-04T00:20:05.371Z,135.30
2018-03-04T00:22:40.985Z,127.40
2018-03-04T00:25:08.493Z,129.43
2018-03-04T00:27:36.028Z,129.60
2018-03-04T00:30:03.572Z,135.43
2018-03-04T00:32:31.201Z,132.47
2018-03-04T00:34:58.851Z,126.27
2018-03-04T00:37:27.152Z,134.40
2018-03-04T00:39:54.967Z,130.33
2018-03-04T00:42:22.456Z,131.57
2018-03-04T00:44:50.739Z,126.57
2018-03-04T00:47:19.167Z,131.07
2018-03-04T00:49:46.663Z,124.03
2018-03-04T00:52:14.195Z,116.00
2018-03-04T00:54:41.742Z,136.03
2018-03-04T00:57:09.227Z,133.37
2018-03-04T00:59:36.717Z,127.30
2018-03-04T01:02:04.983Z,120.97
2018-03-04T01:04:33.476Z,125.80
2018-03-04T01:07:01.155Z,130.77
2018-03-04T01:09:28.659Z,130.40
2018-03-04T01:11:56.210Z,136.40
2018-03-04T01:14:23.724Z,137.30
2018-03-04T01:16:52.133Z,126.03
2018-03-04T01:19:19.861Z,129.73
2018-03-04T01:21:48.180Z,130.07
2018-03-04T01:24:15.752Z,133.13
2018-03-04T01:26:43.237Z,118.27
2018-03-04T01:29:10.739Z,121.33
2018-03-04T01:31:38.232Z,130.90
2018-03-04T01:34:05.813Z,128.10
2018-03-04T01:36:33.437Z,130.37
2018-03-04T01:39:01.025Z,119.93
2018-03-04T01:41:28.596Z,122.67
2018-03-04T01:43:56.977Z,134.00
2018-03-04T01:46:25.248Z,125.10
2018-03-04T01:48:52.779Z,117.23
2018-03-04T01:51:20.264Z,135.97
2018-03-04T01:53:47.740Z,129.23
2018-03-04T01:56:16.088Z,128.47
2018-03-04T01:58:44.476Z,130.50
2018-03-04T02:01:11.962Z,126.20
2018-03-04T02:03:40.326Z,126.07
2018-03-04T02:06:08.703Z,127.40
2018-03-04T02:08:36.247Z,121.33
2018-03-04T02:11:04.724Z,135.00
2018-03-04T02:13:32.394Z,131.40
2018-03-04T02:16:00.788Z,126.40
2018-03-04T02:18:29.104Z,118.20
2018-03-04T02:20:56.621Z,118.83
2018-03-04T02:23:24.115Z,124.30
2018-03-04T02:25:51.584Z,135.10
2018-03-04T02:28:19.135Z,122.70
2018-03-04T02:30:46.597Z,141.43
2018-03-04T02:33:14.143Z,134.17
2018-03-04T02:35:41.771Z,123.90
2018-03-04T02:38:09.245Z,134.47
2018-03-04T02:40:37.036Z,126.87
2018-03-04T02:43:04.575Z,127.17
2018-03-04T02:45:32.142Z,132.70
2018-03-04T02:47:59.638Z,130.80
2018-03-04T02:50:27.178Z,130.90
2018-03-04T02:52:54.663Z,126.47
2018-03-04T02:55:22.264Z,129.90
2018-03-04T02:57:50.555Z,140.83
2018-03-04T03:00:18.071Z,138.40
2018-03-04T03:02:45.592Z,127.23
2018-03-04T03:05:13.139Z,128.93
2018-03-04T03:07:40.627Z,138.97
2018-03-04T03:10:08.106Z,124.13
2018-03-04T03:12:35.694Z,127.73
2018-03-04T03:15:03.358Z,126.83
2018-03-04T03:17:31.623Z,117.67
2018-03-04T03:19:59.097Z,131.53
2018-03-04T03:22:27.371Z,131.57
2018-03-04T03:24:54.845Z,119.20
2018-03-04T03:27:22.479Z,129.33
2018-03-04T03:29:50.851Z,135.07
2018-03-04T03:32:18.356Z,129.47
2018-03-04T03:34:45.925Z,123.83
2018-03-04T03:37:13.536Z,136.47
2018-03-04T03:39:41.063Z,131.70
2018-03-04T03:42:08.558Z,129.30
2018-03-04T03:44:36.230Z,122.23
2018-03-04T03:47:04.482Z,135.00
2018-03-04T03:49:32.885Z,144.03
2018-03-04T03:52:01.153Z,134.83
2018-03-04T03:54:28.648Z,133.80
2018-03-04T03:56:56.229Z,137.63
2018-03-04T03:59:23.727Z,118.10
2018-03-04T04:01:51.199Z,124.60
2018-03-04T04:04:19.504Z,137.13
2018-03-04T04:06:46.996Z,124.17
2018-03-04T04:09:14.507Z,130.50
2018-03-04T04:11:42.011Z,129.13
2018-03-04T04:14:10.594Z,132.13
2018-03-04T04:16:38.091Z,128.07
2018-03-04T04:19:06.408Z,132.07
2018-03-04T04:21:34.709Z,122.77
2018-03-04T04:24:02.298Z,135.17
2018-03-04T04:26:30.580Z,113.10
2018-03-04T04:28:58.958Z,120.83
2018-03-04T04:31:27.226Z,130.33
2018-03-04T04:33:54.953Z,124.67
2018-03-04T04:36:22.427Z,120.93
2018-03-04T04:38:49.948Z,124.17
2018-03-04T04:41:17.435Z,131.53
2018-03-04T04:43:44.928Z,130.23
2018-03-04T04:46:13.203Z,127.33
2018-03-04T04:48:40.721Z,129.27
2018-03-04T04:51:08.218Z,139.97
2018-03-04T04:53:35.705Z,122.57
2018-03-04T04:56:03.949Z,137.77
2018-03-04T04:58:31.415Z,127.67
2018-03-04T05:00:58.896Z,131.93
2018-03-04T05:03:27.240Z,134.37
2018-03-04T05:05:54.705Z,127.10
2018-03-04T05:08:22.984Z,118.80
2018-03-04T05:10:50.467Z,128.20
2018-03-04T05:13:18.141Z,130.37
2018-03-04T05:15:45.643Z,109.20
2018-03-04T05:18:13.451Z,118.90
2018-03-04T05:20:41.191Z,120.83
2018-03-04T05:23:08.672Z,127.30
2018-03-04T05:25:37.172Z,123.97
2018-03-04T05:28:04.796Z,136.67
2018-03-04T05:37:18.561Z,126.20
2018-03-04T05:39:46.027Z,123.40
2018-03-04T05:42:13.492Z,122.63
2018-03-04T05:44:41.115Z,122.27
2018-03-04T05:47:08.599Z,121.40
2018-03-04T05:49:36.710Z,122.73
2018-03-04T05:52:04.972Z,126.90
2018-03-04T05:54:33.261Z,121.23
2018-03-04T05:57:01.511Z,114.10
2018-03-04T05:59:28.970Z,114.10
2018-03-04T06:01:56.461Z,106.07
2018-03-04T06:04:23.932Z,109.20
2018-03-04T06:06:52.276Z,114.53
2018-03-04T06:09:20.669Z,120.57
2018-03-04T06:11:48.986Z,117.67
2018-03-04T06:14:16.711Z,111.67
2018-03-04T06:16:44.311Z,122.43
2018-03-04T06:19:11.890Z,118.40
2018-03-04T06:21:39.360Z,116.87
2018-03-04T06:24:06.890Z,114.77
2018-03-04T06:26:34.375Z,114.33
2018-03-04T06:29:01.890Z,104.27
2018-03-04T06:31:29.371Z,107.53
2018-03-04T06:33:56.860Z,107.87
2018-03-04T06:36:24.329Z,97.37
2018-03-04T06:38:52.076Z,98.43
2018-03-04T06:41:19.549Z,101.73
2018-03-04T06:43:47.807Z,108.90
2018-03-04T06:46:15.282Z,98.53
2018-03-04T06:48:43.660Z,103.23
2018-03-04T06:51:12.042Z,109.53
2018-03-04T06:53:40.297Z,107.30
2018-03-04T06:56:07.796Z,105.40
2018-03-04T06:58:36.112Z,103.50
2018-03-04T07:01:03.713Z,102.27
2018-03-04T07:03:31.279Z,96.57
2018-03-04T07:05:59.550Z,93.43
2018-03-04T07:08:27.216Z,88.63
2018-03-04T07:10:55.490Z,88.90
2018-03-04T07:13:23.104Z,85.50
2018-03-04T07:15:50.665Z,99.70
2018-03-04T07:18:18.284Z,89.30
2018-03-04T07:20:46.544Z,78.97
2018-03-04T07:23:14.805Z,82.97
2018-03-04T07:25:42.469Z,79.40
2018-03-04T07:28:10.005Z,91.77
2018-03-04T07:30:38.287Z,85.20
2018-03-04T07:33:05.775Z,82.57
2018-03-04T07:35:33.251Z,85.40
2018-03-04T07:38:01.531Z,82.67
2018-03-04T07:40:29.779Z,82.13
2018-03-04T07:42:57.309Z,91.57
2018-03-04T07:45:24.812Z,79.03
2018-03-04T07:47:53.244Z,85.27
2018-03-04T07:50:20.737Z,86.73
2018-03-04T07:52:48.266Z,79.90
2018-03-04T07:55:15.879Z,88.67
2018-03-04T07:57:44.160Z,84.67
2018-03-04T08:00:12.473Z,78.03
2018-03-04T08:02:40.196Z,88.40
2018-03-04T08:05:08.469Z,82.13
2018-03-04T08:07:36.699Z,87.23
2018-03-04T08:10:04.322Z,87.37
2018-03-04T08:12:31.834Z,80.67
2018-03-04T08:15:00.239Z,77.27
2018-03-04T08:17:28.454Z,80.53
2018-03-04T08:19:56.055Z,82.13
2018-03-04T08:22:23.737Z,77.90
2018-03-04T08:25:03.714Z,75.57
2018-03-04T08:27:43.785Z,82.23
2018-03-04T08:30:11.355Z,77.27
2018-03-04T08:32:39.079Z,73.07
2018-03-04T08:35:07.537Z,64.90
2018-03-04T08:37:34.999Z,70.80
2018-03-04T08:40:02.484Z,71.37
2018-03-04T08:42:30.737Z,71.93
2018-03-04T08:44:58.777Z,60.97
2018-03-04T08:47:26.256Z,69.57
2018-03-04T08:49:54.143Z,64.40
2018-03-04T08:52:21.731Z,65.47
2018-03-04T08:54:49.970Z,62.03
2018-03-04T08:57:17.653Z,62.43
2018-03-04T08:59:45.902Z,60.87
2018-03-04T09:02:13.389Z,56.00
2018-03-04T09:04:41.701Z,54.53
2018-03-04T09:07:09.999Z,57.07
2018-03-04T09:09:37.519Z,57.77
2018-03-04T09:12:05.261Z,59.00
2018-03-04T09:14:33.564Z,51.30
2018-03-04T09:17:01.046Z,55.70
2018-03-04T09:19:28.737Z,57.57
2018-03-04T09:21:56.229Z,57.50
2018-03-04T09:24:23.832Z,59.83
2018-03-04T09:26:51.386Z,56.77
2018-03-04T09:29:18.859Z,65.47
2018-03-04T09:31:46.393Z,56.10
2018-03-04T09:34:14.099Z,55.53
2018-03-04T09:36:41.682Z,52.53
2018-03-04T09:39:10.064Z,53.40
2018-03-04T09:41:37.683Z,52.60
2018-03-04T09:44:05.181Z,55.23
2018-03-04T09:46:33.429Z,49.93
2018-03-04T09:49:00.956Z,53.60
2018-03-04T09:51:28.721Z,55.00
2018-03-04T09:53:56.217Z,48.13
2018-03-04T09:56:23.774Z,46.47
2018-03-04T09:58:51.306Z,51.47
2018-03-04T10:01:18.818Z,49.77
2018-03-04T10:03:47.205Z,47.67
2018-03-04T10:06:15.443Z,47.53
2018-03-04T10:08:43.915Z,45.20
2018-03-04T10:11:11.567Z,46.20
2018-03-04T10:13:39.122Z,48.13
2018-03-04T10:16:07.647Z,51.80
2018-03-04T10:18:35.894Z,49.07
2018-03-04T10:21:03.843Z,48.00
2018-03-04T10:23:31.370Z,50.87
2018-03-04T10:25:58.878Z,49.20
2018-03-04T10:28:26.363Z,48.43
2018-03-04T10:30:53.818Z,47.67
2018-03-04T10:33:21.399Z,43.40
2018-03-04T10:35:49.638Z,47.73
2018-03-04T10:38:17.175Z,40.47
2018-03-04T10:40:44.655Z,42.43
2018-03-04T10:43:12.160Z,40.00
2018-03-04T10:45:39.699Z,43.97
2018-03-04T10:48:07.311Z,39.17
2018-03-04T10:50:35.596Z,38.53
2018-03-04T10:53:03.063Z,40.70
2018-03-04T10:55:30.570Z,37.67
2018-03-04T10:57:58.463Z,37.77
2018-03-04T11:00:25.966Z,38.50
2018-03-04T11:03:00.066Z,39.43
2018-03-04T11:05:27.688Z,36.40
2018-03-04T11:07:55.227Z,43.37
2018-03-04T11:10:23.328Z,41.03
2018-03-04T11:12:50.939Z,38.70
2018-03-04T11:15:18.496Z,35.67
2018-03-04T11:17:46.101Z,42.10
2018-03-04T11:20:13.637Z,36.57
2018-03-04T11:22:41.970Z,33.57
2018-03-04T11:25:09.456Z,35.57
2018-03-04T11:27:37.955Z,27.27
2018-03-04T11:30:05.681Z,32.33
2018-03-04T11:32:33.160Z,28.17
2018-03-04T11:35:00.647Z,29.17
2018-03-04T11:37:28.496Z,30.87
2018-03-04T11:39:57.080Z,27.87
2018-03-04T11:42:25.435Z,31.00
2018-03-04T11:44:52.916Z,25.77
2018-03-04T11:47:21.652Z,26.60
2018-03-04T11:49:49.178Z,22.70
2018-03-04T11:52:17.425Z,30.97
2018-03-04T11:54:44.968Z,24.40
2018-03-04T11:57:12.516Z,25.63
2018-03-04T11:59:40.116Z,21.83
2018-03-04T12:02:08.367Z,22.97
2018-03-04T12:04:35.975Z,21.63
2018-03-04T12:07:03.666Z,19.60
2018-03-04T12:09:31.154Z,20.10
2018-03-04T12:11:58.703Z,21.20
2018-03-04T12:14:26.166Z,17.93
2018-03-04T12:16:53.672Z,20.50
2018-03-04T12:19:21.377Z,21.13
2018-03-04T12:21:48.832Z,20.30
2018-03-04T12:24:16.301Z,18.50
2018-03-04T12:26:43.775Z,18.10
2018-03-04T12:29:11.258Z,19.50
2018-03-04T12:31:39.813Z,17.40
2018-03-04T12:34:07.373Z,18.50
2018-03-04T12:36:34.927Z,21.43
2018-03-04T12:39:02.453Z,17.60
2018-03-04T12:41:30.849Z,22.00
2018-03-04T12:43:58.493Z,25.93
2018-03-04T12:46:26.977Z,25.20
2018-03-04T12:48:54.652Z,21.17
2018-03-04T12:51:22.139Z,23.20
2018-03-04T12:53:49.759Z,18.37
2018-03-04T12:56:17.249Z,19.80
2018-03-04T12:58:44.846Z,20.90
2018-03-04T13:01:12.377Z,19.60
2018-03-04T13:03:39.901Z,25.83
2018-03-04T13:06:07.869Z,20.20
2018-03-04T13:08:36.000Z,18.30
2018-03-04T13:11:04.412Z,22.27
2018-03-04T13:13:32.141Z,19.93
2018-03-04T13:15:59.614Z,20.03
2018-03-04T13:18:27.127Z,19.03
2018-03-04T13:20:54.627Z,18.97
2018-03-04T13:23:22.844Z,23.07
2018-03-04T13:25:50.422Z,22.33
2018-03-04T13:28:18.007Z,24.73
2018-03-04T13:30:45.624Z,18.07
2018-03-04T13:33:13.245Z,24.80
2018-03-04T13:35:40.790Z,21.37
2018-03-04T13:38:08.460Z,17.73
2018-03-04T13:40:36.796Z,22.50
2018-03-04T13:43:04.242Z,21.67
2018-03-04T13:45:31.716Z,24.87
2018-03-04T13:47:59.171Z,18.87
2018-03-04T13:50:26.696Z,22.73
2018-03-04T13:52:54.292Z,18.47
2018-03-04T13:55:21.959Z,20.20
2018-03-04T13:57:49.440Z,18.50
2018-03-04T14:00:16.900Z,19.53
2018-03-04T14:02:45.231Z,16.57
2018-03-04T14:05:12.732Z,16.47
2018-03-04T14:07:40.815Z,14.23
2018-03-04T14:10:09.048Z,13.73
2018-03-04T14:12:36.762Z,18.33
2018-03-04T14:15:04.307Z,20.13
2018-03-04T14:17:32.604Z,15.90
2018-03-04T14:20:00.315Z,13.63
2018-03-04T14:22:27.800Z,14.13
2018-03-04T14:24:55.360Z,16.47
2018-03-04T14:27:22.828Z,14.07
2018-03-04T14:29:51.145Z,11.57
2018-03-04T14:32:18.646Z,13.60
2018-03-04T14:34:46.161Z,13.90
2018-03-04T14:37:13.770Z,12.50
2018-03-04T14:39:41.259Z,13.90
2018-03-04T14:42:09.660Z,16.20
2018-03-04T14:44:37.155Z,18.30
2018-03-04T14:47:04.640Z,32.83
2018-03-04T14:49:33.094Z,19.60
2018-03-04T14:52:00.592Z,25.33
2018-03-04T14:54:28.244Z,15.33
2018-03-04T14:56:56.669Z,19.83
2018-03-04T14:59:24.149Z,23.13
2018-03-04T15:01:51.648Z,16.90
2018-03-04T15:04:19.903Z,18.53
2018-03-04T15:06:47.387Z,16.53
2018-03-04T15:09:15.652Z,23.93
2018-03-04T15:11:43.882Z,16.27
2018-03-04T15:14:11.481Z,18.47
2018-03-04T15:16:38.995Z,17.40
2018-03-04T15:19:07.660Z,17.70
2018-03-04T15:21:35.753Z,20.20
2018-03-04T15:24:03.395Z,16.50
2018-03-04T15:26:30.993Z,16.43
2018-03-04T15:28:58.577Z,32.17
2018-03-04T15:31:26.178Z,30.27
2018-03-04T15:33:53.722Z,37.67
2018-03-04T15:36:22.200Z,50.07
2018-03-04T15:38:50.629Z,22.20
2018-03-04T15:41:18.737Z,22.40
2018-03-04T15:43:47.334Z,23.30
2018-03-04T15:46:15.696Z,26.53
2018-03-04T15:48:43.580Z,17.53
2018-03-04T15:51:12.176Z,22.80
2018-03-04T15:53:39.758Z,19.20
2018-03-04T15:56:07.395Z,24.57
2018-03-04T15:58:35.982Z,21.70
2018-03-04T16:01:04.742Z,20.20
2018-03-04T16:03:32.873Z,25.33
2018-03-04T16:06:00.664Z,29.97
2018-03-04T16:08:28.320Z,22.00
2018-03-04T16:10:55.810Z,22.20
2018-03-04T16:13:24.196Z,18.73
2018-03-04T16:15:52.580Z,18.40
2018-03-04T16:18:20.226Z,22.50
2018-03-04T16:20:47.800Z,16.63
2018-03-04T16:23:15.658Z,17.10
2018-03-04T16:25:43.995Z,14.13
2018-03-04T16:28:11.571Z,15.53
2018-03-04T16:30:39.123Z,15.57
2018-03-04T16:39:51.813Z,17.70
2018-03-04T16:42:20.089Z,18.90
2018-03-04T16:44:47.656Z,19.47
2018-03-04T16:47:15.309Z,17.07
2018-03-04T16:49:43.442Z,17.13
2018-03-04T16:52:11.104Z,19.57
2018-03-04T16:54:38.600Z,17.00
2018-03-04T16:57:07.063Z,19.77
2018-03-04T16:59:34.539Z,16.03
2018-03-04T17:02:02.157Z,14.57
2018-03-04T17:04:29.679Z,20.53
2018-03-04T17:06:57.433Z,19.00
2018-03-04T17:09:25.797Z,20.67
2018-03-04T17:11:53.524Z,16.67
2018-03-04T17:14:21.656Z,16.80
2018-03-04T17:16:50.184Z,20.20
2018-03-04T17:19:17.673Z,22.70
2018-03-04T17:21:46.063Z,37.20
2018-03-04T17:24:14.360Z,37.20
2018-03-04T17:26:42.167Z,25.27
2018-03-04T17:29:09.651Z,24.70
2018-03-04T17:31:38.144Z,28.20
2018-03-04T17:34:06.577Z,21.57
2018-03-04T17:36:34.192Z,18.33
2018-03-04T17:39:02.472Z,20.00
2018-03-04T17:41:30.807Z,18.60
2018-03-04T17:43:58.478Z,24.97
2018-03-04T17:46:25.952Z,20.43
2018-03-04T17:48:53.716Z,20.63
2018-03-04T17:51:21.193Z,29.50
2018-03-04T17:53:48.784Z,27.50
2018-03-04T17:56:16.270Z,25.50
2018-03-04T17:58:43.818Z,16.93
2018-03-04T18:01:11.300Z,19.13
2018-03-04T18:03:38.867Z,19.17
2018-03-04T18:06:06.787Z,36.17
2018-03-04T18:08:34.277Z,28.43
2018-03-04T18:11:01.748Z,61.73
2018-03-04T18:13:29.265Z,76.57
2018-03-04T18:15:57.555Z,62.00
2018-03-04T18:18:25.065Z,41.60
2018-03-04T18:20:53.392Z,31.93
2018-03-04T18:30:06.252Z,56.80
2018-03-04T18:32:33.719Z,44.03
2018-03-04T18:35:01.309Z,44.07
2018-03-04T18:37:28.869Z,44.43
2018-03-04T18:39:56.363Z,36.30
2018-03-04T18:42:24.086Z,33.00
2018-03-04T18:44:51.588Z,37.17
2018-03-04T18:47:19.838Z,39.40
2018-03-04T18:49:47.287Z,37.73
2018-03-04T18:52:14.780Z,46.00
2018-03-04T18:54:42.729Z,55.07
2018-03-04T18:57:11.084Z,40.33
2018-03-04T18:59:38.635Z,34.93
2018-03-04T19:02:06.119Z,40.50
2018-03-04T19:04:33.731Z,41.53
2018-03-04T19:07:01.242Z,30.83
2018-03-04T19:09:28.749Z,33.50
2018-03-04T19:11:56.478Z,40.23
2018-03-04T19:14:23.992Z,34.70
2018-03-04T19:16:51.473Z,43.63
2018-03-04T19:19:19.117Z,44.70
2018-03-04T19:21:46.592Z,44.67
2018-03-04T19:24:14.174Z,44.97
2018-03-04T19:26:42.634Z,53.97
2018-03-04T19:29:10.135Z,46.30
2018-03-04T19:31:37.932Z,39.57
2018-03-04T19:34:05.438Z,46.70
2018-03-04T19:36:33.750Z,68.17
2018-03-04T19:39:01.269Z,93.70
2018-03-04T19:41:28.936Z,61.03
2018-03-04T19:43:57.170Z,42.20
2018-03-04T19:46:24.724Z,38.27
2018-03-04T19:48:52.713Z,36.20
2018-03-04T19:51:21.010Z,39.83
2018-03-04T19:53:49.315Z,40.80
2018-03-04T19:56:16.796Z,43.10
2018-03-04T19:58:44.299Z,39.50
2018-03-04T20:01:12.065Z,41.17
2018-03-04T20:03:39.651Z,41.57
2018-03-04T20:06:07.292Z,43.70
2018-03-04T20:08:35.532Z,43.07
2018-03-04T20:11:04.014Z,41.87
2018-03-04T20:13:31.678Z,40.70
2018-03-04T20:15:59.176Z,44.70
2018-03-04T20:18:27.449Z,35.10
2018-03-04T20:20:55.628Z,43.60
2018-03-04T20:23:23.864Z,39.33
2018-03-04T20:25:51.372Z,38.83
2018-03-04T20:28:19.081Z,40.47
2018-03-04T20:30:46.640Z,40.27
2018-03-04T20:33:14.103Z,47.80
2018-03-04T20:35:41.616Z,39.57
2018-03-04T20:38:09.100Z,40.00
2018-03-04T20:40:36.569Z,46.13
2018-03-04T20:43:04.117Z,48.07
2018-03-04T20:45:31.651Z,43.80
2018-03-04T20:47:59.193Z,43.70
2018-03-04T20:50:27.610Z,48.93
2018-03-04T20:52:55.191Z,37.23
2018-03-04T20:55:22.692Z,38.73
2018-03-04T20:57:51.018Z,42.20
2018-03-04T21:00:18.516Z,37.37
2018-03-04T21:02:46.135Z,36.30
2018-03-04T21:05:13.758Z,38.90
2018-03-04T21:07:42.066Z,38.27
2018-03-04T21:10:10.464Z,40.03
2018-03-04T21:12:38.191Z,39.43
2018-03-04T21:15:05.772Z,42.30
2018-03-04T21:17:33.301Z,43.33
2018-03-04T21:20:01.608Z,42.33
2018-03-04T21:22:29.114Z,41.70
2018-03-04T21:24:56.634Z,40.60
2018-03-04T21:27:24.542Z,39.60
2018-03-04T21:29:52.136Z,45.30
2018-03-04T21:32:20.414Z,41.53
2018-03-04T21:34:48.370Z,38.93
2018-03-04T21:37:16.643Z,35.57
2018-03-04T21:39:44.207Z,39.07
2018-03-04T21:42:12.469Z,36.60
2018-03-04T21:44:39.977Z,41.93
2018-03-04T21:47:08.347Z,40.90
2018-03-04T21:49:35.890Z,51.30
2018-03-04T21:52:04.232Z,49.50
2018-03-04T21:54:31.786Z,41.13
2018-03-04T21:56:59.255Z,49.53
2018-03-04T21:59:26.795Z,44.30
2018-03-04T22:01:54.378Z,41.83
2018-03-04T22:04:22.063Z,41.53
2018-03-04T22:06:49.916Z,40.17
2018-03-04T22:09:18.305Z,35.17
2018-03-04T22:11:46.552Z,34.10
2018-03-04T22:14:14.400Z,32.70
2018-03-04T22:16:42.013Z,36.83
2018-03-04T22:19:09.622Z,33.63
2018-03-04T22:21:37.225Z,33.90
2018-03-04T22:24:05.510Z,35.47
2018-03-04T22:26:33.033Z,28.90
2018-03-04T22:29:00.520Z,30.40
2018-03-04T22:31:29.224Z,30.63
2018-03-04T22:33:56.737Z,30.10
2018-03-04T22:36:24.231Z,30.73
2018-03-04T22:38:52.600Z,30.00
2018-03-04T22:41:20.855Z,31.00
2018-03-04T22:43:48.353Z,20.80
2018-03-04T22:46:16.601Z,27.53
2018-03-04T22:48:44.191Z,29.33
2018-03-04T22:51:12.452Z,24.57
2018-03-04T22:53:40.723Z,28.77
2018-03-04T22:56:08.993Z,27.57
2018-03-04T22:58:37.559Z,34.53
2018-03-04T23:01:05.045Z,26.30
2018-03-04T23:03:33.375Z,26.57
2018-03-04T23:06:00.858Z,25.20
2018-03-04T23:08:28.340Z,23.90
2018-03-04T23:10:56.596Z,26.37
2018-03-04T23:13:24.076Z,27.83
2018-03-04T23:15:52.454Z,24.43
2018-03-04T23:18:20.927Z,27.90
2018-03-04T23:20:48.575Z,22.73
2018-03-04T23:23:16.073Z,23.30
2018-03-04T23:25:43.626Z,24.50
2018-03-04T23:28:11.080Z,20.50
2018-03-04T23:30:39.398Z,23.03
2018-03-04T23:33:07.051Z,25.30
2018-03-04T23:35:34.693Z,22.63
2018-03-04T23:38:02.950Z,19.13
2018-03-04T23:40:31.225Z,21.20
2018-03-04T23:42:58.798Z,19.73
2018-03-04T23:45:26.422Z,20.50
2018-03-04T23:47:54.099Z,22.30
2018-03-04T23:50:21.812Z,18.90
2018-03-04T23:52:49.377Z,19.73
2018-03-04T23:55:16.880Z,22.60
2018-03-04T23:57:45.166Z,15.43
